Etusivu
METAR-TAF:

METAR-TAF

Lentoasemat :

Xi’an Xianyangin kansainvälinen lentoasema

Xi’an, Kiina

Leveyspiiri: 34-26N, Pituuspiiri: 108-45E, korkeus merenpinnasta: 479 m

Tämänhetkinen sää

Tämä raportti tehtiin 16 minuuttia sitten, kello 08.00 UTC
Tuuli 10 kn lounaasta, vaihdellen etelän ja lännen välillä
Lämpötila 29°C
Kosteus 52%
Ilmanpaine 1006 hPa
Näkyvyys: 5000 m
usvaa

METAR: ZLXY 240800Z 22005MPS 190V260 5000 HZ NSC 29/18 Q1006 NOSIG

Aika: 16:16 (08:16 UTC)

Sääennuste

Tämä raportti tehtiin 5 tuntia ja 5 minuuttia sitten, kello 03.11 UTC
Ennuste voimassa 24. päivästä klo 06 UTC - 25. päivään klo 06 UTC
Tuuli 6 kn lännestä/lounaasta
Näkyvyys: 3000 m
usvaa

TAF: ZLXY 240311Z 2406/2506 24003MPS 3000 HZ NSC TX32/2407Z TN15/2422Z

Säähavainnot ja -ennusteet yli 4000 lentoasemalta (METAR- ja TAF-raportit).

Käytössä olevat sääasemat on merkitty karttaan keltaisilla ja punaisilla pisteillä.

Aseta hiiri pisteen päälle nähdäksesi sääaseman nimen.

Klikkaa sitten nähdäksesi säähavainnot ja -ennusteet.

Kartan vaihtaminen: klikkaa mustalla rastilla varustettuja vihreitä pisteitä, niin voit zoomata sisään; viivalla varustettua vihreää pistettä, niin voit zoomata ulos tai vihreitä nuolia, niin pääset viereisille kartoille.


METAR-TAF: